Terminal Aerodrome Forecast
Issued by NWS

Home | Current Version | Previous Version | Text Only | Print | Product List | Glossary On
Versions: 1 2 3 4 5 6 7 8 9 10 11 12 13
004
FTPA31 PHFO 271735
TAFHKO
TAF
PHKO 271735Z 2718/2818 VRB03KT P6SM FEW035
     FM272000 22009KT P6SM FEW035 SCT060
     FM280400 VRB06KT P6SM VCSH FEW035 BKN060
      TEMPO 2804/2806 06009G15KT
     FM280800 08009KT P6SM FEW035 SCT060=

USA.gov is the U.S. government's official web portal to all federal, state and local government web resources and services.